createdAt,value
2019-03-27T00:00:49.313Z,76.53
2019-03-27T00:03:13.717Z,76.62
2019-03-27T00:05:38.299Z,77.33
2019-03-27T00:08:02.692Z,77.78
2019-03-27T00:10:27.125Z,77.44
2019-03-27T00:12:51.538Z,77.38
2019-03-27T00:15:16.090Z,77.98
2019-03-27T00:17:40.709Z,77.18
2019-03-27T00:20:09.771Z,77.61
2019-03-27T00:22:34.189Z,76.88
2019-03-27T00:24:58.672Z,76.99
2019-03-27T00:27:23.091Z,77.41
2019-03-27T00:29:47.623Z,78.71
2019-03-27T00:32:12.200Z,79.02
2019-03-27T00:34:36.613Z,79.36
2019-03-27T00:37:01.043Z,79.48
2019-03-27T00:39:25.444Z,80.06
2019-03-27T00:41:49.952Z,79.74
2019-03-27T00:44:14.427Z,79.39
2019-03-27T00:46:38.855Z,79.03
2019-03-27T00:49:03.265Z,79.39
2019-03-27T00:51:27.717Z,78.89
2019-03-27T00:53:52.115Z,78.99
2019-03-27T00:56:16.538Z,78.83
2019-03-27T00:58:40.950Z,77.72
2019-03-27T01:01:09.552Z,77.61
2019-03-27T01:03:33.952Z,77.85
2019-03-27T01:05:58.464Z,77.84
2019-03-27T01:08:22.944Z,77.64
2019-03-27T01:10:47.397Z,76.43
2019-03-27T01:13:11.797Z,76.04
2019-03-27T01:15:40.121Z,77.62
2019-03-27T01:18:02.497Z,78.50
2019-03-27T01:20:26.914Z,79.05
2019-03-27T01:22:51.358Z,78.37
2019-03-27T01:25:15.846Z,78.52
2019-03-27T01:27:40.276Z,77.71
2019-03-27T01:30:06.728Z,77.85
2019-03-27T01:32:31.161Z,77.41
2019-03-27T01:34:55.575Z,78.12
2019-03-27T01:37:20.028Z,77.66
2019-03-27T01:39:44.492Z,77.59
2019-03-27T01:42:09.006Z,78.16
2019-03-27T01:44:33.434Z,78.33
2019-03-27T01:46:57.885Z,78.56
2019-03-27T01:49:22.379Z,78.59
2019-03-27T01:51:46.794Z,78.88
2019-03-27T01:54:11.241Z,79.13
2019-03-27T01:56:35.650Z,78.90
2019-03-27T01:59:00.090Z,77.89
2019-03-27T02:01:24.525Z,76.61
2019-03-27T02:03:48.928Z,75.97
2019-03-27T02:06:13.409Z,75.48
2019-03-27T02:08:37.851Z,76.59
2019-03-27T02:11:03.109Z,76.71
2019-03-27T02:13:27.538Z,76.48
2019-03-27T02:15:52.022Z,75.91
2019-03-27T02:18:16.453Z,76.61
2019-03-27T02:20:40.926Z,76.72
2019-03-27T02:23:05.506Z,77.35
2019-03-27T02:25:29.974Z,77.19
2019-03-27T02:27:54.474Z,76.87
2019-03-27T02:30:19.028Z,76.28
2019-03-27T02:32:43.431Z,76.23
2019-03-27T02:35:07.952Z,76.99
2019-03-27T02:37:32.367Z,76.62
2019-03-27T02:39:56.779Z,77.25
2019-03-27T02:42:21.186Z,77.23
2019-03-27T02:44:45.633Z,77.92
2019-03-27T02:47:10.019Z,77.92
2019-03-27T02:49:34.454Z,76.40
2019-03-27T02:51:58.856Z,75.73
2019-03-27T02:54:23.286Z,76.27
2019-03-27T02:56:47.701Z,76.77
2019-03-27T02:59:12.171Z,76.49
2019-03-27T03:01:36.561Z,76.92
2019-03-27T03:04:01.074Z,76.77
2019-03-27T03:06:25.673Z,77.29
2019-03-27T03:08:50.094Z,77.80
2019-03-27T03:11:14.506Z,78.32
2019-03-27T03:13:38.927Z,78.59
2019-03-27T03:16:03.430Z,78.96
2019-03-27T03:18:27.862Z,78.53
2019-03-27T03:20:52.278Z,78.41
2019-03-27T03:23:16.703Z,78.85
2019-03-27T03:25:41.242Z,79.19
2019-03-27T03:28:05.642Z,79.42
2019-03-27T03:30:30.207Z,79.88
2019-03-27T03:32:54.624Z,80.37
2019-03-27T03:35:19.160Z,79.89
2019-03-27T03:37:43.630Z,79.38
2019-03-27T03:40:09.013Z,78.88
2019-03-27T03:42:33.970Z,79.40
2019-03-27T03:44:58.420Z,79.50
2019-03-27T03:47:22.841Z,79.55
2019-03-27T03:49:47.271Z,79.45
2019-03-27T03:52:11.770Z,80.11
2019-03-27T03:54:36.779Z,80.26
2019-03-27T03:57:03.743Z,80.08
2019-03-27T03:59:30.216Z,80.38
2019-03-27T04:01:55.258Z,80.10
2019-03-27T04:04:21.657Z,80.61
2019-03-27T04:06:46.092Z,80.80
2019-03-27T04:09:10.601Z,80.86
2019-03-27T04:11:35.085Z,81.00
2019-03-27T04:13:59.537Z,81.02
2019-03-27T04:16:23.947Z,80.48
2019-03-27T04:18:48.354Z,80.93
2019-03-27T04:21:12.788Z,80.74
2019-03-27T04:23:37.203Z,80.87
2019-03-27T04:26:09.478Z,81.10
2019-03-27T04:28:27.813Z,80.87
2019-03-27T04:30:52.318Z,80.81
2019-03-27T04:33:16.795Z,80.90
2019-03-27T04:35:41.273Z,80.45
2019-03-27T04:38:05.728Z,80.24
2019-03-27T04:40:30.264Z,80.72
2019-03-27T04:42:54.646Z,80.69
2019-03-27T04:45:19.086Z,80.60
2019-03-27T04:47:43.516Z,80.32
2019-03-27T04:50:08.272Z,80.40
2019-03-27T04:52:32.669Z,80.70
2019-03-27T04:54:57.221Z,80.88
2019-03-27T04:57:21.644Z,80.55
2019-03-27T04:59:46.059Z,80.21
2019-03-27T05:02:10.469Z,80.05
2019-03-27T05:04:35.626Z,79.66
2019-03-27T05:07:00.125Z,79.84
2019-03-27T05:09:24.541Z,79.96
2019-03-27T05:11:48.958Z,79.83
2019-03-27T05:14:13.369Z,80.06
2019-03-27T05:16:37.826Z,80.15
2019-03-27T05:19:02.225Z,80.00
2019-03-27T05:21:26.658Z,79.91
2019-03-27T05:23:51.149Z,79.76
2019-03-27T05:26:15.567Z,80.22
2019-03-27T05:28:39.978Z,79.96
2019-03-27T05:31:04.415Z,79.61
2019-03-27T05:33:28.900Z,79.17
2019-03-27T05:35:53.350Z,79.35
2019-03-27T05:38:17.757Z,79.64
2019-03-27T05:40:42.182Z,79.72
2019-03-27T05:43:06.575Z,80.09
2019-03-27T05:45:31.001Z,79.44
2019-03-27T05:47:59.699Z,79.89
2019-03-27T05:50:21.608Z,79.98
2019-03-27T05:52:46.048Z,79.05
2019-03-27T05:55:10.525Z,79.86
2019-03-27T05:57:34.953Z,80.20
2019-03-27T05:59:59.438Z,79.50
2019-03-27T06:02:23.888Z,78.86
2019-03-27T06:04:48.301Z,78.62
2019-03-27T06:07:12.827Z,78.44
2019-03-27T06:09:37.250Z,79.41
2019-03-27T06:12:01.686Z,79.56
2019-03-27T06:14:26.097Z,79.50
2019-03-27T06:16:50.532Z,79.44
2019-03-27T06:19:14.942Z,79.31
2019-03-27T06:21:39.448Z,79.35
2019-03-27T06:24:03.884Z,79.24
2019-03-27T06:26:28.295Z,78.93
2019-03-27T06:28:52.701Z,79.07
2019-03-27T06:31:17.209Z,79.00
2019-03-27T06:33:41.707Z,78.41
2019-03-27T06:36:06.146Z,79.00
2019-03-27T06:38:30.649Z,77.75
2019-03-27T06:40:55.062Z,78.99
2019-03-27T06:43:26.884Z,79.17
2019-03-27T06:45:51.283Z,79.34
2019-03-27T06:48:25.757Z,79.22
2019-03-27T06:50:41.908Z,79.13
2019-03-27T06:53:06.352Z,79.30
2019-03-27T06:55:30.826Z,78.96
2019-03-27T06:57:55.277Z,78.73
2019-03-27T07:00:22.718Z,78.57
2019-03-27T07:02:47.177Z,78.75
2019-03-27T07:05:13.462Z,78.80
2019-03-27T07:07:37.957Z,78.18
2019-03-27T07:10:02.714Z,78.01
2019-03-27T07:12:27.138Z,78.02
2019-03-27T07:14:51.546Z,78.15
2019-03-27T07:17:15.961Z,78.78
2019-03-27T07:19:40.418Z,78.53
2019-03-27T07:22:04.973Z,78.22
2019-03-27T07:24:29.401Z,78.26
2019-03-27T07:26:53.815Z,78.68
2019-03-27T07:29:19.175Z,78.28
2019-03-27T07:31:43.743Z,78.27
2019-03-27T07:34:08.309Z,78.40
2019-03-27T07:36:32.721Z,78.27
2019-03-27T07:39:10.240Z,77.58
2019-03-27T07:41:23.273Z,77.44
2019-03-27T07:43:47.770Z,77.91
2019-03-27T07:46:12.243Z,78.12
2019-03-27T07:48:36.764Z,78.48
2019-03-27T07:51:01.160Z,78.46
2019-03-27T07:53:25.571Z,78.35
2019-03-27T07:55:49.987Z,77.78
2019-03-27T07:58:14.412Z,77.49
2019-03-27T08:00:38.870Z,78.09
2019-03-27T08:03:03.353Z,77.84
2019-03-27T08:05:27.791Z,76.54
2019-03-27T08:07:52.207Z,76.57
2019-03-27T08:10:16.784Z,75.90
2019-03-27T08:12:41.190Z,76.63
2019-03-27T08:15:07.265Z,76.84
2019-03-27T08:17:31.698Z,76.31
2019-03-27T08:19:56.123Z,75.75
2019-03-27T08:22:20.547Z,75.01
2019-03-27T08:24:44.983Z,74.93
2019-03-27T08:27:09.535Z,74.32
2019-03-27T08:29:33.973Z,74.75
2019-03-27T08:31:58.383Z,72.74
2019-03-27T08:34:22.806Z,74.15
2019-03-27T08:36:47.234Z,74.61
2019-03-27T08:39:11.710Z,74.12
2019-03-27T08:41:36.684Z,73.40
2019-03-27T08:44:01.081Z,72.58
2019-03-27T08:46:25.519Z,73.07
2019-03-27T08:48:49.930Z,73.14
2019-03-27T08:51:14.338Z,72.85
2019-03-27T08:53:38.748Z,72.62
2019-03-27T08:56:03.179Z,73.43
2019-03-27T08:58:27.591Z,72.01
2019-03-27T09:00:53.864Z,71.16
2019-03-27T09:03:18.617Z,71.00
2019-03-27T09:05:43.109Z,71.75
2019-03-27T09:08:07.516Z,71.52
2019-03-27T09:10:31.950Z,70.83
2019-03-27T09:12:56.356Z,70.62
2019-03-27T09:15:20.786Z,70.68
2019-03-27T09:17:45.175Z,70.12
2019-03-27T09:20:10.512Z,70.88
2019-03-27T09:22:34.951Z,70.04
2019-03-27T09:24:59.451Z,70.43
2019-03-27T09:27:23.901Z,70.03
2019-03-27T09:29:48.300Z,70.48
2019-03-27T09:32:12.714Z,70.34
2019-03-27T09:34:37.248Z,69.61
2019-03-27T09:37:01.681Z,69.40
2019-03-27T09:39:26.109Z,69.47
2019-03-27T09:41:50.618Z,69.50
2019-03-27T09:44:15.040Z,70.07
2019-03-27T09:46:39.614Z,69.30
2019-03-27T09:49:04.140Z,70.15
2019-03-27T09:51:28.548Z,69.40
2019-03-27T09:53:53.410Z,69.48
2019-03-27T09:56:19.575Z,69.00
2019-03-27T09:58:44.154Z,68.78
2019-03-27T10:01:08.664Z,68.89
2019-03-27T10:03:33.150Z,68.88
2019-03-27T10:05:57.732Z,68.76
2019-03-27T10:08:22.202Z,68.20
2019-03-27T10:10:46.611Z,68.36
2019-03-27T10:13:11.019Z,67.87
2019-03-27T10:15:35.747Z,68.76
2019-03-27T10:18:00.243Z,68.04
2019-03-27T10:20:24.666Z,68.36
2019-03-27T10:22:49.087Z,68.75
2019-03-27T10:25:13.694Z,68.40
2019-03-27T10:27:38.230Z,67.85
2019-03-27T10:30:02.791Z,67.55
2019-03-27T10:32:27.214Z,67.36
2019-03-27T10:34:51.637Z,67.30
2019-03-27T10:37:16.078Z,67.42
2019-03-27T10:39:40.521Z,67.64
2019-03-27T10:42:05.065Z,67.35
2019-03-27T10:44:29.582Z,67.56
2019-03-27T10:46:54.014Z,66.49
2019-03-27T10:49:18.571Z,65.75
2019-03-27T10:51:43.000Z,65.37
2019-03-27T10:54:07.483Z,65.18
2019-03-27T10:56:31.903Z,65.02
2019-03-27T10:58:56.318Z,65.16
2019-03-27T11:01:20.744Z,63.82
2019-03-27T11:03:45.171Z,63.78
2019-03-27T11:06:09.589Z,63.45
2019-03-27T11:08:34.051Z,63.35
2019-03-27T11:10:58.465Z,63.40
2019-03-27T11:13:22.900Z,63.38
2019-03-27T11:15:47.367Z,62.24
2019-03-27T11:18:11.942Z,63.52
2019-03-27T11:20:36.350Z,62.48
2019-03-27T11:23:00.911Z,62.57
2019-03-27T11:25:25.397Z,62.23
2019-03-27T11:27:49.909Z,62.02
2019-03-27T11:30:15.209Z,61.52
2019-03-27T11:32:39.616Z,60.60
2019-03-27T11:35:04.754Z,60.35
2019-03-27T11:37:29.228Z,59.58
2019-03-27T11:39:53.753Z,59.49
2019-03-27T11:42:18.183Z,59.14
2019-03-27T11:44:42.675Z,58.96
2019-03-27T11:47:07.190Z,57.97
2019-03-27T11:49:31.763Z,57.84
2019-03-27T11:51:56.201Z,58.16
2019-03-27T11:54:20.704Z,57.53
2019-03-27T11:56:45.200Z,56.23
2019-03-27T11:59:09.613Z,56.57
2019-03-27T12:01:41.983Z,56.29
2019-03-27T12:04:00.224Z,56.15
2019-03-27T12:06:24.630Z,56.88
2019-03-27T12:08:50.827Z,56.89
2019-03-27T12:11:15.266Z,56.34
2019-03-27T12:13:39.765Z,55.67
2019-03-27T12:16:04.457Z,55.44
2019-03-27T12:18:31.798Z,56.68
2019-03-27T12:20:59.350Z,57.10
2019-03-27T12:23:21.303Z,56.61
2019-03-27T12:25:45.741Z,56.06
2019-03-27T12:28:10.330Z,56.15
2019-03-27T12:30:34.869Z,55.38
2019-03-27T12:32:59.293Z,55.23
2019-03-27T12:35:23.698Z,54.61
2019-03-27T12:37:48.089Z,55.25
2019-03-27T12:40:12.676Z,55.28
2019-03-27T12:42:37.255Z,55.62
2019-03-27T12:45:02.324Z,54.81
2019-03-27T12:47:26.856Z,55.36
2019-03-27T12:49:52.005Z,55.84
2019-03-27T12:52:16.465Z,55.82
2019-03-27T12:54:40.957Z,54.06
2019-03-27T12:57:05.435Z,52.58
2019-03-27T12:59:29.873Z,53.91
2019-03-27T13:01:54.280Z,53.29
2019-03-27T13:04:18.706Z,52.86
2019-03-27T13:06:43.258Z,51.96
2019-03-27T13:09:08.597Z,53.27
2019-03-27T13:11:33.015Z,53.96
2019-03-27T13:13:57.436Z,54.97
2019-03-27T13:16:21.848Z,55.23
2019-03-27T13:18:46.266Z,54.67
2019-03-27T13:21:10.735Z,55.02
2019-03-27T13:23:35.140Z,55.63
2019-03-27T13:25:59.651Z,55.82
2019-03-27T13:28:24.054Z,56.13
2019-03-27T13:30:49.416Z,56.11
2019-03-27T13:33:13.877Z,56.61
2019-03-27T13:35:38.330Z,56.96
2019-03-27T13:38:02.755Z,55.71
2019-03-27T13:40:27.161Z,55.69
2019-03-27T13:42:51.576Z,55.95
2019-03-27T13:45:16.466Z,55.52
2019-03-27T13:47:40.911Z,56.11
2019-03-27T13:50:07.859Z,55.92
2019-03-27T13:52:32.268Z,55.58
2019-03-27T13:54:56.717Z,55.92
2019-03-27T13:57:21.207Z,55.89
2019-03-27T13:59:45.645Z,56.28
2019-03-27T14:02:11.599Z,55.79
2019-03-27T14:04:36.029Z,56.00
2019-03-27T14:07:00.451Z,55.80
2019-03-27T14:09:25.557Z,55.60
2019-03-27T14:11:49.980Z,55.59
2019-03-27T14:14:14.375Z,55.98
2019-03-27T14:16:38.960Z,56.48
2019-03-27T14:19:03.336Z,57.31
2019-03-27T14:21:27.776Z,57.08
2019-03-27T14:23:52.170Z,56.25
2019-03-27T14:26:16.603Z,57.68
2019-03-27T14:28:41.059Z,58.06
2019-03-27T14:31:05.658Z,59.04
2019-03-27T14:33:30.051Z,60.29
2019-03-27T14:35:54.623Z,59.99
2019-03-27T14:38:19.092Z,60.69
2019-03-27T14:40:43.525Z,61.14
2019-03-27T14:43:07.940Z,60.99
2019-03-27T14:45:32.367Z,60.49
2019-03-27T14:47:56.788Z,60.17
2019-03-27T14:50:21.225Z,59.28
2019-03-27T14:52:45.642Z,59.56
2019-03-27T14:55:10.690Z,59.71
2019-03-27T14:57:35.183Z,60.41
2019-03-27T14:59:59.595Z,60.95
2019-03-27T15:02:24.071Z,60.64
2019-03-27T15:04:48.475Z,60.91
2019-03-27T15:07:13.340Z,60.96
2019-03-27T15:09:37.781Z,60.67
2019-03-27T15:12:02.231Z,60.57
2019-03-27T15:14:26.803Z,60.85
2019-03-27T15:16:51.276Z,60.42
2019-03-27T15:19:15.738Z,60.01
2019-03-27T15:21:40.166Z,60.77
2019-03-27T15:24:04.626Z,61.32
2019-03-27T15:26:29.050Z,60.62
2019-03-27T15:28:53.456Z,61.63
2019-03-27T15:31:20.799Z,62.76
2019-03-27T15:33:44.076Z,61.09
2019-03-27T15:36:08.610Z,62.64
2019-03-27T15:38:33.028Z,61.67
2019-03-27T15:40:57.523Z,63.39
2019-03-27T15:43:22.051Z,63.36
2019-03-27T15:45:46.672Z,62.21
2019-03-27T15:48:11.143Z,62.79
2019-03-27T15:50:35.637Z,63.12
2019-03-27T15:53:00.129Z,62.88
2019-03-27T15:55:24.598Z,63.66
2019-03-27T15:57:49.035Z,63.42
2019-03-27T16:00:15.326Z,63.81
2019-03-27T16:02:39.760Z,62.21
2019-03-27T16:05:05.722Z,62.64
2019-03-27T16:07:31.380Z,63.03
2019-03-27T16:09:56.100Z,63.02
2019-03-27T16:12:20.585Z,63.94
2019-03-27T16:14:44.994Z,63.77
2019-03-27T16:17:13.533Z,64.47
2019-03-27T16:19:35.602Z,64.35
2019-03-27T16:22:00.016Z,65.64
2019-03-27T16:24:24.433Z,65.65
2019-03-27T16:27:03.578Z,64.84
2019-03-27T16:29:14.969Z,64.86
2019-03-27T16:31:39.454Z,65.07
2019-03-27T16:34:04.014Z,64.76
2019-03-27T16:36:28.545Z,66.04
2019-03-27T16:38:52.957Z,66.00
2019-03-27T16:41:17.356Z,65.40
2019-03-27T16:43:44.162Z,66.45
2019-03-27T16:46:08.286Z,66.33
2019-03-27T16:48:32.714Z,66.58
2019-03-27T16:50:57.121Z,66.14
2019-03-27T16:53:21.560Z,66.39
2019-03-27T16:55:46.196Z,67.76
2019-03-27T16:58:10.733Z,68.82
2019-03-27T17:00:35.261Z,68.91
2019-03-27T17:03:02.468Z,68.89
2019-03-27T17:05:26.890Z,69.04
2019-03-27T17:07:51.321Z,68.99
2019-03-27T17:10:15.932Z,69.34
2019-03-27T17:12:40.381Z,69.77
2019-03-27T17:15:06.209Z,69.95
2019-03-27T17:17:30.743Z,69.73
2019-03-27T17:19:55.136Z,70.11
2019-03-27T17:22:20.141Z,70.44
2019-03-27T17:24:44.743Z,70.69
2019-03-27T17:27:09.173Z,71.25
2019-03-27T17:29:33.578Z,71.72
2019-03-27T17:31:57.991Z,72.10
2019-03-27T17:34:22.425Z,72.16
2019-03-27T17:36:46.834Z,71.76
2019-03-27T17:39:11.339Z,72.28
2019-03-27T17:41:35.800Z,73.04
2019-03-27T17:44:00.236Z,72.46
2019-03-27T17:46:24.638Z,72.48
2019-03-27T17:48:49.065Z,73.10
2019-03-27T17:51:13.468Z,73.50
2019-03-27T17:53:37.888Z,74.49
2019-03-27T17:56:02.298Z,74.69
2019-03-27T17:58:26.807Z,74.26
2019-03-27T18:00:52.217Z,75.40
2019-03-27T18:03:16.703Z,75.07
2019-03-27T18:05:41.111Z,75.40
2019-03-27T18:08:05.615Z,75.20
2019-03-27T18:10:30.018Z,74.32
2019-03-27T18:12:54.415Z,73.88
2019-03-27T18:15:18.856Z,74.56
2019-03-27T18:17:43.269Z,75.02
2019-03-27T18:20:07.777Z,75.22
2019-03-27T18:22:32.185Z,74.81
2019-03-27T18:24:56.611Z,74.88
2019-03-27T18:27:21.012Z,74.03
2019-03-27T18:29:45.455Z,74.38
2019-03-27T18:32:09.940Z,75.47
2019-03-27T18:34:34.437Z,76.50
2019-03-27T18:36:58.841Z,76.81
2019-03-27T18:39:23.267Z,77.21
2019-03-27T18:41:47.695Z,76.98
2019-03-27T18:44:12.457Z,77.24
2019-03-27T18:46:36.986Z,76.10
2019-03-27T18:49:01.412Z,76.53
2019-03-27T18:51:26.043Z,76.42
2019-03-27T18:53:59.676Z,77.20
2019-03-27T18:56:16.647Z,77.72
2019-03-27T18:58:41.048Z,77.95
2019-03-27T19:01:05.609Z,77.97
2019-03-27T19:03:30.024Z,78.29
2019-03-27T19:05:54.448Z,78.13
2019-03-27T19:08:18.923Z,79.17
2019-03-27T19:10:43.530Z,78.96
2019-03-27T19:13:07.930Z,78.66
2019-03-27T19:15:32.436Z,78.98
2019-03-27T19:17:56.923Z,79.87
2019-03-27T19:20:21.434Z,79.97
2019-03-27T19:22:45.869Z,80.65
2019-03-27T19:25:10.359Z,80.68
2019-03-27T19:27:34.759Z,80.30
2019-03-27T19:29:59.191Z,81.23
2019-03-27T19:32:23.682Z,81.55
2019-03-27T19:34:51.110Z,81.93
2019-03-27T19:37:15.710Z,82.06
2019-03-27T19:39:40.177Z,82.21
2019-03-27T19:42:04.725Z,82.27
2019-03-27T19:44:29.190Z,82.41
2019-03-27T19:46:53.630Z,82.27
2019-03-27T19:49:18.231Z,82.72
2019-03-27T19:51:42.724Z,82.43
2019-03-27T19:54:08.235Z,82.49
2019-03-27T19:56:32.742Z,82.35
2019-03-27T19:58:57.138Z,82.29
2019-03-27T20:01:21.570Z,82.58
2019-03-27T20:03:46.049Z,82.84
2019-03-27T20:06:10.472Z,82.89
2019-03-27T20:08:34.879Z,83.01
2019-03-27T20:10:59.342Z,83.37
2019-03-27T20:13:23.750Z,83.36
2019-03-27T20:15:48.314Z,83.25
2019-03-27T20:18:12.779Z,83.23
2019-03-27T20:20:37.288Z,83.39
2019-03-27T20:23:14.269Z,82.73
2019-03-27T20:25:27.946Z,82.56
2019-03-27T20:27:52.397Z,83.04
2019-03-27T20:30:19.191Z,83.42
2019-03-27T20:32:43.597Z,83.94
2019-03-27T20:35:08.148Z,84.25
2019-03-27T20:37:32.583Z,84.00
2019-03-27T20:39:57.150Z,84.04
2019-03-27T20:42:21.597Z,84.05
2019-03-27T20:44:46.011Z,83.77
2019-03-27T20:47:10.552Z,83.69
2019-03-27T20:49:34.967Z,83.65
2019-03-27T20:51:59.568Z,83.31
2019-03-27T20:54:23.962Z,83.32
2019-03-27T20:56:48.398Z,83.39
2019-03-27T20:59:12.802Z,83.08
2019-03-27T21:01:37.313Z,83.18
2019-03-27T21:04:01.726Z,83.62
2019-03-27T21:06:26.141Z,83.70
2019-03-27T21:08:50.647Z,83.33
2019-03-27T21:11:15.062Z,83.34
2019-03-27T21:13:41.208Z,83.05
2019-03-27T21:16:05.663Z,82.82
2019-03-27T21:18:30.113Z,82.55
2019-03-27T21:20:54.693Z,83.02
2019-03-27T21:23:19.119Z,82.72
2019-03-27T21:25:43.536Z,82.67
2019-03-27T21:28:08.046Z,82.60
2019-03-27T21:30:32.483Z,82.02
2019-03-27T21:32:56.950Z,82.00
2019-03-27T21:35:21.375Z,82.11
2019-03-27T21:37:45.830Z,82.19
2019-03-27T21:40:10.614Z,82.85
2019-03-27T21:42:35.149Z,82.62
2019-03-27T21:44:59.574Z,83.20
2019-03-27T21:47:24.023Z,83.20
2019-03-27T21:49:48.565Z,83.24
2019-03-27T21:52:12.992Z,82.93
2019-03-27T21:54:37.546Z,82.90
2019-03-27T21:57:01.984Z,82.91
2019-03-27T21:59:26.432Z,82.82
2019-03-27T22:01:50.872Z,82.68
2019-03-27T22:04:15.388Z,83.03
2019-03-27T22:06:39.901Z,83.18
2019-03-27T22:09:06.394Z,83.27
2019-03-27T22:11:30.823Z,82.99
2019-03-27T22:13:55.275Z,82.90
2019-03-27T22:16:19.722Z,82.93
2019-03-27T22:18:44.167Z,82.83
2019-03-27T22:21:08.668Z,82.71
2019-03-27T22:23:34.634Z,82.89
2019-03-27T22:25:59.069Z,83.06
2019-03-27T22:28:23.537Z,82.86
2019-03-27T22:30:48.105Z,83.05
2019-03-27T22:33:12.563Z,82.88
2019-03-27T22:35:36.995Z,82.71
2019-03-27T22:38:01.481Z,82.94
2019-03-27T22:40:25.927Z,82.70
2019-03-27T22:42:50.346Z,82.93
2019-03-27T22:45:14.878Z,82.90
2019-03-27T22:47:39.305Z,82.93
2019-03-27T22:50:08.021Z,82.35
2019-03-27T22:52:31.826Z,82.19
2019-03-27T22:54:56.288Z,82.22
2019-03-27T22:57:20.716Z,82.54
2019-03-27T22:59:45.171Z,82.62
2019-03-27T23:02:09.695Z,82.49
2019-03-27T23:04:34.138Z,82.64
2019-03-27T23:06:58.656Z,82.65
2019-03-27T23:09:23.111Z,82.82
2019-03-27T23:11:47.548Z,82.47
2019-03-27T23:14:12.285Z,82.36
2019-03-27T23:16:36.723Z,82.57
2019-03-27T23:19:01.181Z,82.22
2019-03-27T23:21:25.694Z,82.71
2019-03-27T23:23:50.140Z,82.48
2019-03-27T23:26:14.575Z,82.02
2019-03-27T23:28:39.013Z,81.74
2019-03-27T23:31:03.545Z,81.51
2019-03-27T23:33:27.982Z,81.80
2019-03-27T23:35:52.511Z,81.75
2019-03-27T23:38:16.950Z,81.87
2019-03-27T23:40:41.540Z,82.11
2019-03-27T23:43:05.970Z,81.54
2019-03-27T23:45:30.424Z,81.99
2019-03-27T23:47:54.891Z,81.76
2019-03-27T23:50:19.341Z,81.78
2019-03-27T23:52:43.871Z,82.41
2019-03-27T23:55:08.552Z,82.21
2019-03-27T23:57:32.987Z,82.73
2019-03-27T23:59:57.434Z,83.01
